Share

Carlton, AL

Jackson, AL (KALJACKS3) Elev 53 ft | 31.49 °N, 87.90 °W | Change Station
Active Advisory: Flood Warning

Current weather conditions updated 4 seconds ago

Scattered Clouds
Scattered Clouds
71.0 °F
Feels Like 75 °F
N
0.0
Wind Variable Wind from ENE
Gusts 0.0 mph
Sunrise 6:17 AM
Sunset 7:23 PM
Moon Waning Gibbous

Today is forecast to be Cooler than yesterday.

Pressure 30.14 in
Visibility 10.0 miles
Clouds Scattered Clouds 3200 ft
Heat Index 75 °F
Dew Point 58 °F
Humidity 63%
Rainfall 0.00 in
Snow Depth Not available.
UV 8 out of 16
Pollen 7.90 out of 12
Air Quality Not available.
Flu Activity Sporadic
METAR KCQF 201955Z AUTO 07008KT 10SM SCT032 20/12 A3014 RMK AO2

More Conditions Fewer Conditions

Pressure 30.14 in
Visibility 10.0 miles
Clouds Scattered Clouds 3200 ft
Heat Index 75 °F
Dew Point 58 °F
Humidity 63%
Rainfall 0.00 in
Snow Depth Not available.
UV 8 out of 16
Pollen 7.90 out of 12
Air Quality Not available.
Flu Activity Sporadic
METAR KCQF 201955Z AUTO 07008KT 10SM SCT032 20/12 A3014 RMK AO2

More Conditions Fewer Conditions

10-Day Weather Forecast

Almanac

Astronomy

Apr. 20, 2014 Rise Set
Actual Time 6:17 AM CDT 7:23 PM CDT
Civil Twilight 5:52 AM CDT 7:48 PM CDT
Nautical Twilight 5:22 AM CDT 8:18 PM CDT
Astronomical Twilight 4:51 AM CDT 8:49 PM CDT
Moon No Moon Rise 10:45 AM CDT
Length of Visible Light 13h 56m
Length of Day
13h 05m
Tomorrow will be 1m 46s longer.
Waning Gibbous, 67% of the Moon is Illuminated
Today
Waning Gibbous
Apr 22
Last Quarter
Apr 29
New
May 6
First Quarter
May 14
Full

Today's Extremes

State Highs State Lows

Community

  • Morning Sun
    Morning Sun
  • after rain
    after rain
  • Columbine
    Columbine
  • Easter Sunrise
    Easter Sunrise
  • Easter Eve - The Promise - Lake Palestine, TX
    Easter Eve - The Promise - Lake Palestine, TX

WunderPhotos

Upload Photos

1,703,339 photos uploaded!

WunderBlogs® & News

Nearby

Snow Depth

Station Depth Elevation
No new snow has been reported.

Coastal Water Temperatures

Place Temperature
Mobile State Docks, AL 64.0 °F
Coast Guard Sector Mobile, AL 64.0 °F

Earthquake Activity

City Distance Mag. Time & Date
No recent earthquake activity has been reported nearby.
Minimum magnitude displayed is 2.5.

Nearby Weather Stations

Station Location Temp. Heat Index Dew Point Humidity Wind Precip. Elev Updated Type
Jackson, AL, Jackson, AL 71.0 °F 75 °F 58 °F 63% ENE  at  0.0 mph 0.00 in / hr 53 ft 3:04 PM CDT Rapid Fire
Belview Circle, Jackson, AL 75.0 °F 77 °F 61 °F 61% North  at  0.0 mph 0.00 in / hr 381 ft 3:04 PM CDT Rapid Fire

Show More Stations Show Fewer Stations

What do you think?

We're not finished. Please let us know what you like, what you don't like, and what you are still missing.